This is the latest recevied weather packets stored in our database for station/object HS9UAC-10. If no packets are shown the sender has not sent any weather packets the latest 10 day(s).
| Time | Temp. | Humidity | Pressure | Rain* | Wind** | Luminosity | Snow |
|---|---|---|---|---|---|---|---|
| 1778141822 | 42.78° C | 43% | 1004 hPa | - | - | 0 W/m² | - |
| 1778140898 | 41.67° C | 45% | 1003 hPa | - | - | 0 W/m² | - |
| 1778139973 | 42.78° C | 43% | 1004 hPa | - | - | 0 W/m² | - |
| 1778139048 | 41.11° C | 46% | 1004 hPa | - | - | 0 W/m² | - |
| 1778138123 | 41.11° C | 46% | 1004 hPa | - | - | 0 W/m² | - |
| 1778137198 | 41.11° C | 45% | 1004 hPa | - | - | 0 W/m² | - |
| 1778136273 | 40° C | 48% | 1004 hPa | - | - | 0 W/m² | - |
| 1778135348 | 41.11° C | 46% | 1005 hPa | - | - | 0 W/m² | - |
| 1778134424 | 41.67° C | 44% | 1005 hPa | - | - | 0 W/m² | - |
| 1778133498 | 42.22° C | 40% | 1006 hPa | - | - | 0 W/m² | - |
| 1778132573 | 42.22° C | 40% | 1006 hPa | - | - | 0 W/m² | - |
| 1778131647 | 41.11° C | 42% | 1006 hPa | - | - | 0 W/m² | - |
| 1778130723 | 40° C | 48% | 1006 hPa | - | - | 0 W/m² | - |
| 1778129798 | 40° C | 46% | 1006 hPa | - | - | 0 W/m² | - |
| 1778128873 | 40° C | 47% | 1007 hPa | - | - | 0 W/m² | - |
| 1778127948 | 40° C | 49% | 1007 hPa | - | - | 0 W/m² | - |
| 1778127023 | 39.44° C | 52% | 1007 hPa | - | - | 0 W/m² | - |
| 1778125173 | 37.78° C | 55% | 1007 hPa | - | - | 0 W/m² | - |
| 1778061520 | 40° C | 50% | 1004 hPa | - | - | 0 W/m² | - |
| 1778055972 | 43.89° C | 42% | 1004 hPa | - | - | 0 W/m² | - |
| 1778055047 | 43.33° C | 42% | 1004 hPa | - | - | 0 W/m² | - |
| 1778054122 | 41.67° C | 47% | 1005 hPa | - | - | 0 W/m² | - |
| 1778053198 | 40° C | 52% | 1005 hPa | - | - | 0 W/m² | - |
| 1778052273 | 39.44° C | 54% | 1005 hPa | - | - | 0 W/m² | - |
| 1778051348 | 38.89° C | 56% | 1005 hPa | - | - | 0 W/m² | - |
* Rain since midnight (hover to see other rain measurements)
** Current wind speed in m/s (hover to see current wind gust speed)